sensor_id;sensor_type;location;lat;lon;timestamp;pressure;altitude;pressure_sealevel;temperature;humidity
61128;BME280;47013;42.664;23.242;2023-05-11T00:00:11;94187.34;;;9.22;91.71
61128;BME280;47013;42.664;23.242;2023-05-11T00:02:37;94183.50;;;9.19;92.00
61128;BME280;47013;42.664;23.242;2023-05-11T00:05:02;94186.56;;;9.21;91.73
61128;BME280;47013;42.664;23.242;2023-05-11T00:07:28;94191.59;;;9.23;91.56
61128;BME280;47013;42.664;23.242;2023-05-11T00:09:53;94191.22;;;9.21;91.95
61128;BME280;47013;42.664;23.242;2023-05-11T00:12:18;94193.53;;;9.26;91.93
61128;BME280;47013;42.664;23.242;2023-05-11T00:14:43;94195.06;;;9.34;91.39
61128;BME280;47013;42.664;23.242;2023-05-11T00:17:09;94197.41;;;9.28;90.67
61128;BME280;47013;42.664;23.242;2023-05-11T00:19:35;94198.53;;;9.24;90.48
61128;BME280;47013;42.664;23.242;2023-05-11T00:22:01;94201.22;;;9.34;90.58
61128;BME280;47013;42.664;23.242;2023-05-11T00:24:26;94198.53;;;9.41;89.80
61128;BME280;47013;42.664;23.242;2023-05-11T00:26:51;94196.53;;;9.56;90.24
61128;BME280;47013;42.664;23.242;2023-05-11T00:29:16;94194.59;;;9.60;89.81
61128;BME280;47013;42.664;23.242;2023-05-11T00:31:42;94192.69;;;9.54;88.34
61128;BME280;47013;42.664;23.242;2023-05-11T00:34:11;94197.38;;;9.39;88.23
61128;BME280;47013;42.664;23.242;2023-05-11T00:36:37;94192.72;;;9.36;89.08
61128;BME280;47013;42.664;23.242;2023-05-11T00:39:03;94199.69;;;9.33;89.14
61128;BME280;47013;42.664;23.242;2023-05-11T00:41:28;94193.53;;;9.22;88.92
61128;BME280;47013;42.664;23.242;2023-05-11T00:43:54;94193.19;;;9.13;89.82
61128;BME280;47013;42.664;23.242;2023-05-11T00:46:19;94193.94;;;9.10;90.56
61128;BME280;47013;42.664;23.242;2023-05-11T00:48:44;94196.69;;;8.99;90.87
61128;BME280;47013;42.664;23.242;2023-05-11T00:51:10;94193.59;;;9.01;91.19
61128;BME280;47013;42.664;23.242;2023-05-11T00:53:36;94196.28;;;9.01;91.77
61128;BME280;47013;42.664;23.242;2023-05-11T00:56:02;94193.19;;;9.02;91.35
61128;BME280;47013;42.664;23.242;2023-05-11T00:58:27;94197.44;;;8.96;91.59
61128;BME280;47013;42.664;23.242;2023-05-11T01:00:54;94191.28;;;8.92;92.21
61128;BME280;47013;42.664;23.242;2023-05-11T01:03:19;94201.69;;;8.83;92.71
61128;BME280;47013;42.664;23.242;2023-05-11T01:05:48;94195.91;;;8.77;92.99
61128;BME280;47013;42.664;23.242;2023-05-11T01:08:17;94199.75;;;8.83;93.33
61128;BME280;47013;42.664;23.242;2023-05-11T01:10:53;94193.22;;;8.77;93.07
61128;BME280;47013;42.664;23.242;2023-05-11T01:13:27;94202.47;;;8.76;93.08
61128;BME280;47013;42.664;23.242;2023-05-11T01:15:55;94192.44;;;8.70;93.24
61128;BME280;47013;42.664;23.242;2023-05-11T01:18:24;94199.00;;;8.69;93.69
61128;BME280;47013;42.664;23.242;2023-05-11T01:20:52;94196.28;;;8.72;93.27
61128;BME280;47013;42.664;23.242;2023-05-11T01:26:21;94193.97;;;8.85;93.73
61128;BME280;47013;42.664;23.242;2023-05-11T01:31:33;94207.91;;;8.87;92.53
61128;BME280;47013;42.664;23.242;2023-05-11T01:34:01;94195.91;;;8.88;91.71
61128;BME280;47013;42.664;23.242;2023-05-11T01:36:28;94209.81;;;8.94;91.95
61128;BME280;47013;42.664;23.242;2023-05-11T01:38:57;94206.72;;;9.02;92.08
61128;BME280;47013;42.664;23.242;2023-05-11T01:41:24;94204.00;;;9.02;90.82
61128;BME280;47013;42.664;23.242;2023-05-11T01:43:52;94208.25;;;9.03;90.95
61128;BME280;47013;42.664;23.242;2023-05-11T01:46:18;94206.72;;;9.02;90.48
61128;BME280;47013;42.664;23.242;2023-05-11T01:48:45;94198.22;;;9.04;90.05
61128;BME280;47013;42.664;23.242;2023-05-11T01:51:13;94204.00;;;8.92;90.19
61128;BME280;47013;42.664;23.242;2023-05-11T01:53:39;94210.56;;;9.08;90.17
61128;BME280;47013;42.664;23.242;2023-05-11T01:56:06;94206.72;;;9.13;89.38
61128;BME280;47013;42.664;23.242;2023-05-11T01:58:32;94205.88;;;9.23;89.42
61128;BME280;47013;42.664;23.242;2023-05-11T02:00:58;94208.59;;;9.30;88.82
61128;BME280;47013;42.664;23.242;2023-05-11T02:03:24;94203.59;;;9.25;88.33
61128;BME280;47013;42.664;23.242;2023-05-11T02:05:51;94201.25;;;9.20;87.81
61128;BME280;47013;42.664;23.242;2023-05-11T02:08:18;94199.34;;;9.17;87.43
61128;BME280;47013;42.664;23.242;2023-05-11T02:10:45;94201.25;;;9.20;87.76
61128;BME280;47013;42.664;23.242;2023-05-11T02:13:12;94198.16;;;9.29;87.29
61128;BME280;47013;42.664;23.242;2023-05-11T02:15:39;94200.50;;;9.27;87.47
61128;BME280;47013;42.664;23.242;2023-05-11T02:18:06;94196.22;;;9.29;86.53
61128;BME280;47013;42.664;23.242;2023-05-11T02:20:33;94202.44;;;9.08;86.82
61128;BME280;47013;42.664;23.242;2023-05-11T02:22:59;94195.88;;;9.06;86.96
61128;BME280;47013;42.664;23.242;2023-05-11T02:25:25;94193.56;;;9.11;86.97
61128;BME280;47013;42.664;23.242;2023-05-11T02:27:50;94194.72;;;9.03;87.14
61128;BME280;47013;42.664;23.242;2023-05-11T02:30:16;94190.50;;;9.02;87.24
61128;BME280;47013;42.664;23.242;2023-05-11T02:32:43;94202.47;;;9.12;87.47
61128;BME280;47013;42.664;23.242;2023-05-11T02:35:13;94197.03;;;9.19;87.46
61128;BME280;47013;42.664;23.242;2023-05-11T02:37:40;94188.13;;;9.29;87.45
61128;BME280;47013;42.664;23.242;2023-05-11T02:40:09;94191.19;;;9.38;86.79
61128;BME280;47013;42.664;23.242;2023-05-11T02:42:38;94193.88;;;9.35;85.33
61128;BME280;47013;42.664;23.242;2023-05-11T02:45:06;94197.34;;;9.35;85.20
61128;BME280;47013;42.664;23.242;2023-05-11T02:47:34;94189.69;;;9.12;84.36
61128;BME280;47013;42.664;23.242;2023-05-11T02:50:01;94194.72;;;9.18;84.56
61128;BME280;47013;42.664;23.242;2023-05-11T02:52:28;94191.25;;;8.96;84.66
61128;BME280;47013;42.664;23.242;2023-05-11T02:54:54;94192.06;;;8.78;85.43
61128;BME280;47013;42.664;23.242;2023-05-11T02:57:21;94188.19;;;8.62;86.68
61128;BME280;47013;42.664;23.242;2023-05-11T02:59:47;94192.06;;;8.53;86.92
61128;BME280;47013;42.664;23.242;2023-05-11T03:02:13;94190.88;;;8.40;87.80
61128;BME280;47013;42.664;23.242;2023-05-11T03:04:39;94199.72;;;8.30;88.25
61128;BME280;47013;42.664;23.242;2023-05-11T03:07:04;94195.47;;;8.25;89.00
61128;BME280;47013;42.664;23.242;2023-05-11T03:09:30;94191.59;;;8.19;88.82
61128;BME280;47013;42.664;23.242;2023-05-11T03:11:55;94194.28;;;8.09;89.47
61128;BME280;47013;42.664;23.242;2023-05-11T03:14:21;94190.41;;;8.06;90.33
61128;BME280;47013;42.664;23.242;2023-05-11T03:16:47;94203.53;;;8.04;90.39
61128;BME280;47013;42.664;23.242;2023-05-11T03:19:12;94198.50;;;7.95;90.80
61128;BME280;47013;42.664;23.242;2023-05-11T03:21:38;94205.41;;;7.93;90.88
61128;BME280;47013;42.664;23.242;2023-05-11T03:24:09;94205.03;;;7.84;91.43
61128;BME280;47013;42.664;23.242;2023-05-11T03:26:36;94196.56;;;8.03;98.57
61128;BME280;47013;42.664;23.242;2023-05-11T03:29:02;94204.28;;;7.97;91.20
61128;BME280;47013;42.664;23.242;2023-05-11T03:31:28;94207.38;;;8.03;91.00
61128;BME280;47013;42.664;23.242;2023-05-11T03:33:53;94200.84;;;8.08;90.84
61128;BME280;47013;42.664;23.242;2023-05-11T03:36:18;94205.09;;;8.12;90.28
61128;BME280;47013;42.664;23.242;2023-05-11T03:38:45;94207.41;;;8.14;89.81
61128;BME280;47013;42.664;23.242;2023-05-11T03:41:14;94214.31;;;8.04;90.05
61128;BME280;47013;42.664;23.242;2023-05-11T03:43:41;94213.59;;;8.11;90.48
61128;BME280;47013;42.664;23.242;2023-05-11T03:46:07;94210.09;;;8.07;90.56
61128;BME280;47013;42.664;23.242;2023-05-11T03:48:34;94213.16;;;8.05;90.97
61128;BME280;47013;42.664;23.242;2023-05-11T03:51:00;94208.53;;;8.06;90.69
61128;BME280;47013;42.664;23.242;2023-05-11T03:53:25;94213.19;;;8.16;90.46
61128;BME280;47013;42.664;23.242;2023-05-11T03:55:50;94218.59;;;8.16;90.37
61128;BME280;47013;42.664;23.242;2023-05-11T03:58:16;94214.34;;;8.18;90.05
61128;BME280;47013;42.664;23.242;2023-05-11T04:00:44;94212.41;;;8.05;90.40
61128;BME280;47013;42.664;23.242;2023-05-11T04:03:09;94218.94;;;7.96;91.29
61128;BME280;47013;42.664;23.242;2023-05-11T04:05:35;94217.41;;;8.03;91.25
61128;BME280;47013;42.664;23.242;2023-05-11T04:08:00;94223.19;;;7.97;91.19
61128;BME280;47013;42.664;23.242;2023-05-11T04:10:29;94223.97;;;8.05;90.99
61128;BME280;47013;42.664;23.242;2023-05-11T04:12:56;94224.38;;;8.11;90.34
61128;BME280;47013;42.664;23.242;2023-05-11T04:15:22;94235.16;;;8.07;90.67
61128;BME280;47013;42.664;23.242;2023-05-11T04:17:47;94234.00;;;8.01;90.61
61128;BME280;47013;42.664;23.242;2023-05-11T04:20:12;94229.38;;;8.05;90.55
61128;BME280;47013;42.664;23.242;2023-05-11T04:22:37;94227.81;;;8.01;90.79
61128;BME280;47013;42.664;23.242;2023-05-11T04:25:03;94235.94;;;8.04;90.71
61128;BME280;47013;42.664;23.242;2023-05-11T04:27:31;94233.59;;;8.03;90.66
61128;BME280;47013;42.664;23.242;2023-05-11T04:29:56;94235.16;;;8.04;90.60
61128;BME280;47013;42.664;23.242;2023-05-11T04:32:21;94230.53;;;7.97;91.74
61128;BME280;47013;42.664;23.242;2023-05-11T04:34:47;94242.06;;;7.94;91.91
61128;BME280;47013;42.664;23.242;2023-05-11T04:37:12;94240.56;;;8.00;92.54
61128;BME280;47013;42.664;23.242;2023-05-11T04:39:38;94240.94;;;7.98;91.93
61128;BME280;47013;42.664;23.242;2023-05-11T04:42:03;94235.88;;;7.93;92.74
61128;BME280;47013;42.664;23.242;2023-05-11T04:44:28;94243.97;;;7.86;93.29
61128;BME280;47013;42.664;23.242;2023-05-11T04:46:56;94234.72;;;7.91;100.00
61128;BME280;47013;42.664;23.242;2023-05-11T04:49:21;94244.75;;;7.94;94.22
61128;BME280;47013;42.664;23.242;2023-05-11T04:51:47;94244.34;;;7.85;93.79
61128;BME280;47013;42.664;23.242;2023-05-11T04:54:12;94249.34;;;7.79;94.64
61128;BME280;47013;42.664;23.242;2023-05-11T04:56:37;94247.78;;;7.78;95.05
61128;BME280;47013;42.664;23.242;2023-05-11T04:59:07;94252.78;;;7.69;94.92
61128;BME280;47013;42.664;23.242;2023-05-11T05:01:32;94249.66;;;7.60;95.29
61128;BME280;47013;42.664;23.242;2023-05-11T05:03:58;94258.19;;;7.73;95.79
61128;BME280;47013;42.664;23.242;2023-05-11T05:06:23;94260.47;;;7.67;95.99
61128;BME280;47013;42.664;23.242;2023-05-11T05:08:48;94263.19;;;7.74;95.73
61128;BME280;47013;42.664;23.242;2023-05-11T05:11:13;94266.34;;;7.83;95.62
61128;BME280;47013;42.664;23.242;2023-05-11T05:13:39;94265.19;;;7.91;95.53
61128;BME280;47013;42.664;23.242;2023-05-11T05:16:04;94270.63;;;7.95;95.59
61128;BME280;47013;42.664;23.242;2023-05-11T05:18:29;94264.03;;;7.92;95.71
61128;BME280;47013;42.664;23.242;2023-05-11T05:20:55;94255.94;;;7.92;95.17
61128;BME280;47013;42.664;23.242;2023-05-11T05:23:20;94264.78;;;7.82;96.19
61128;BME280;47013;42.664;23.242;2023-05-11T05:25:46;94268.22;;;7.79;96.72
61128;BME280;47013;42.664;23.242;2023-05-11T05:28:11;94255.53;;;7.87;96.97
61128;BME280;47013;42.664;23.242;2023-05-11T05:30:36;94259.03;;;7.91;96.89
61128;BME280;47013;42.664;23.242;2023-05-11T05:33:01;94265.91;;;7.78;97.05
61128;BME280;47013;42.664;23.242;2023-05-11T05:35:27;94269.78;;;7.80;97.20
61128;BME280;47013;42.664;23.242;2023-05-11T05:37:52;94265.56;;;7.86;96.62
61128;BME280;47013;42.664;23.242;2023-05-11T05:40:17;94258.25;;;7.83;96.49
61128;BME280;47013;42.664;23.242;2023-05-11T05:42:42;94263.63;;;7.83;96.96
61128;BME280;47013;42.664;23.242;2023-05-11T05:45:08;94268.31;;;7.97;97.44
61128;BME280;47013;42.664;23.242;2023-05-11T05:47:33;94268.38;;;8.11;96.77
61128;BME280;47013;42.664;23.242;2023-05-11T05:49:59;94271.09;;;8.22;96.11
61128;BME280;47013;42.664;23.242;2023-05-11T05:52:24;94266.09;;;8.27;95.26
61128;BME280;47013;42.664;23.242;2023-05-11T05:54:49;94276.13;;;8.31;94.05
61128;BME280;47013;42.664;23.242;2023-05-11T05:57:15;94278.50;;;8.36;92.78
61128;BME280;47013;42.664;23.242;2023-05-11T05:59:40;94278.06;;;8.30;93.48
61128;BME280;47013;42.664;23.242;2023-05-11T06:02:05;94287.75;;;8.35;93.50
61128;BME280;47013;42.664;23.242;2023-05-11T06:04:31;94278.44;;;8.28;92.88
61128;BME280;47013;42.664;23.242;2023-05-11T06:06:56;94279.22;;;8.29;92.14
61128;BME280;47013;42.664;23.242;2023-05-11T06:09:22;94291.59;;;8.34;92.87
61128;BME280;47013;42.664;23.242;2023-05-11T06:11:47;94292.78;;;8.40;92.65
61128;BME280;47013;42.664;23.242;2023-05-11T06:14:12;94287.69;;;8.31;91.24
61128;BME280;47013;42.664;23.242;2023-05-11T06:16:38;94289.63;;;8.31;91.62
61128;BME280;47013;42.664;23.242;2023-05-11T06:19:03;94296.59;;;8.32;92.42
61128;BME280;47013;42.664;23.242;2023-05-11T06:21:28;94298.09;;;8.15;91.43
61128;BME280;47013;42.664;23.242;2023-05-11T06:23:53;94294.56;;;8.07;92.82
61128;BME280;47013;42.664;23.242;2023-05-11T06:26:19;94290.75;;;8.12;93.25
61128;BME280;47013;42.664;23.242;2023-05-11T06:28:45;94303.09;;;8.20;94.23
61128;BME280;47013;42.664;23.242;2023-05-11T06:31:10;94295.41;;;8.25;93.84
61128;BME280;47013;42.664;23.242;2023-05-11T06:33:36;94301.19;;;8.20;93.22
61128;BME280;47013;42.664;23.242;2023-05-11T06:36:05;94301.28;;;8.35;92.77
61128;BME280;47013;42.664;23.242;2023-05-11T06:38:30;94300.06;;;8.28;93.49
61128;BME280;47013;42.664;23.242;2023-05-11T06:40:56;94306.69;;;8.42;93.10
61128;BME280;47013;42.664;23.242;2023-05-11T06:43:21;94301.66;;;8.40;92.93
61128;BME280;47013;42.664;23.242;2023-05-11T06:45:47;94302.03;;;8.39;92.31
61128;BME280;47013;42.664;23.242;2023-05-11T06:48:12;94308.22;;;8.43;92.30
61128;BME280;47013;42.664;23.242;2023-05-11T06:50:37;94293.97;;;8.49;92.66
61128;BME280;47013;42.664;23.242;2023-05-11T06:53:03;94299.34;;;8.46;92.15
61128;BME280;47013;42.664;23.242;2023-05-11T06:55:28;94299.34;;;8.46;92.65
61128;BME280;47013;42.664;23.242;2023-05-11T06:57:53;94294.34;;;8.55;92.41
61128;BME280;47013;42.664;23.242;2023-05-11T07:00:19;94295.53;;;8.61;92.18
61128;BME280;47013;42.664;23.242;2023-05-11T07:02:45;94293.19;;;8.56;91.29
61128;BME280;47013;42.664;23.242;2023-05-11T07:05:10;94299.78;;;8.66;90.21
61128;BME280;47013;42.664;23.242;2023-05-11T07:07:36;94300.97;;;8.75;89.89
61128;BME280;47013;42.664;23.242;2023-05-11T07:10:02;94303.28;;;8.84;90.07
61128;BME280;47013;42.664;23.242;2023-05-11T07:12:27;94312.97;;;8.99;89.65
61128;BME280;47013;42.664;23.242;2023-05-11T07:14:52;94312.19;;;9.06;89.36
61128;BME280;47013;42.664;23.242;2023-05-11T07:17:18;94305.25;;;9.05;88.31
61128;BME280;47013;42.664;23.242;2023-05-11T07:19:43;94310.25;;;9.10;87.83
61128;BME280;47013;42.664;23.242;2023-05-11T07:22:08;94311.41;;;9.05;88.00
61128;BME280;47013;42.664;23.242;2023-05-11T07:24:33;94305.63;;;9.00;87.26
61128;BME280;47013;42.664;23.242;2023-05-11T07:26:59;94301.75;;;9.15;88.30
61128;BME280;47013;42.664;23.242;2023-05-11T07:29:25;94309.09;;;9.04;87.15
61128;BME280;47013;42.664;23.242;2023-05-11T07:31:51;94314.13;;;9.27;87.80
61128;BME280;47013;42.664;23.242;2023-05-11T07:34:16;94318.75;;;9.40;87.13
61128;BME280;47013;42.664;23.242;2023-05-11T07:36:41;94322.22;;;9.44;85.86
61128;BME280;47013;42.664;23.242;2023-05-11T07:39:06;94315.25;;;9.47;86.65
61128;BME280;47013;42.664;23.242;2023-05-11T07:41:32;94319.91;;;9.43;86.00
61128;BME280;47013;42.664;23.242;2023-05-11T07:43:58;94326.09;;;9.29;85.31
61128;BME280;47013;42.664;23.242;2023-05-11T07:46:24;94319.91;;;9.36;85.92
61128;BME280;47013;42.664;23.242;2023-05-11T07:48:49;94317.59;;;9.41;86.08
61128;BME280;47013;42.664;23.242;2023-05-11T07:51:14;94326.50;;;9.42;85.21
61128;BME280;47013;42.664;23.242;2023-05-11T07:53:39;94324.16;;;9.44;86.03
61128;BME280;47013;42.664;23.242;2023-05-11T07:56:05;94326.47;;;9.45;85.84
61128;BME280;47013;42.664;23.242;2023-05-11T07:58:31;94326.09;;;9.36;84.72
61128;BME280;47013;42.664;23.242;2023-05-11T08:00:56;94323.78;;;9.35;85.11
61128;BME280;47013;42.664;23.242;2023-05-11T08:03:22;94324.94;;;9.48;85.52
61128;BME280;47013;42.664;23.242;2023-05-11T08:05:47;94317.19;;;9.54;83.40
61128;BME280;47013;42.664;23.242;2023-05-11T08:08:13;94327.25;;;9.57;84.25
61128;BME280;47013;42.664;23.242;2023-05-11T08:10:38;94329.19;;;9.49;82.80
61128;BME280;47013;42.664;23.242;2023-05-11T08:13:04;94317.56;;;9.70;83.82
61128;BME280;47013;42.664;23.242;2023-05-11T08:15:29;94325.22;;;9.89;82.68
61128;BME280;47013;42.664;23.242;2023-05-11T08:17:54;94328.72;;;9.97;80.66
61128;BME280;47013;42.664;23.242;2023-05-11T08:20:20;94327.91;;;10.07;80.01
61128;BME280;47013;42.664;23.242;2023-05-11T08:22:46;94321.69;;;10.17;80.14
61128;BME280;47013;42.664;23.242;2023-05-11T08:25:11;94313.16;;;10.29;78.98
61128;BME280;47013;42.664;23.242;2023-05-11T08:27:37;94313.47;;;10.46;78.45
61128;BME280;47013;42.664;23.242;2023-05-11T08:30:03;94320.00;;;10.55;77.00
61128;BME280;47013;42.664;23.242;2023-05-11T08:32:28;94323.56;;;10.42;77.10
61128;BME280;47013;42.664;23.242;2023-05-11T08:34:54;94329.00;;;10.34;77.56
61128;BME280;47013;42.664;23.242;2023-05-11T08:37:19;94329.44;;;10.22;77.14
61128;BME280;47013;42.664;23.242;2023-05-11T08:39:44;94337.56;;;10.12;78.07
61128;BME280;47013;42.664;23.242;2023-05-11T08:42:10;94331.78;;;10.06;78.35
61128;BME280;47013;42.664;23.242;2023-05-11T08:44:37;94326.69;;;10.15;79.12
61128;BME280;47013;42.664;23.242;2023-05-11T08:47:06;94322.84;;;10.23;78.33
61128;BME280;47013;42.664;23.242;2023-05-11T08:49:31;94325.53;;;10.27;78.55
61128;BME280;47013;42.664;23.242;2023-05-11T08:51:57;94328.25;;;10.23;78.09
61128;BME280;47013;42.664;23.242;2023-05-11T08:54:23;94321.31;;;10.22;77.40
61128;BME280;47013;42.664;23.242;2023-05-11T08:56:49;94322.50;;;10.07;78.11
61128;BME280;47013;42.664;23.242;2023-05-11T08:59:15;94320.94;;;10.10;79.09
61128;BME280;47013;42.664;23.242;2023-05-11T09:01:42;94318.97;;;10.17;78.18
61128;BME280;47013;42.664;23.242;2023-05-11T09:04:08;94322.03;;;10.26;79.49
61128;BME280;47013;42.664;23.242;2023-05-11T09:06:33;94319.66;;;10.46;78.43
61128;BME280;47013;42.664;23.242;2023-05-11T09:08:59;94315.03;;;10.40;77.33
61128;BME280;47013;42.664;23.242;2023-05-11T09:11:25;94308.88;;;10.32;76.87
61128;BME280;47013;42.664;23.242;2023-05-11T09:13:51;94307.34;;;10.27;77.66
61128;BME280;47013;42.664;23.242;2023-05-11T09:16:16;94306.16;;;10.28;77.99
61128;BME280;47013;42.664;23.242;2023-05-11T09:18:47;94312.34;;;10.36;77.72
61128;BME280;47013;42.664;23.242;2023-05-11T09:21:13;94315.03;;;10.40;78.18
61128;BME280;47013;42.664;23.242;2023-05-11T09:23:38;94319.63;;;10.50;77.92
61128;BME280;47013;42.664;23.242;2023-05-11T09:26:11;94326.28;;;10.34;78.03
61128;BME280;47013;42.664;23.242;2023-05-11T09:28:37;94316.63;;;10.30;78.10
61128;BME280;47013;42.664;23.242;2023-05-11T09:31:02;94315.41;;;10.38;78.72
61128;BME280;47013;42.664;23.242;2023-05-11T09:33:27;94311.56;;;10.36;78.48
61128;BME280;47013;42.664;23.242;2023-05-11T09:35:52;94315.38;;;10.49;78.54
61128;BME280;47013;42.664;23.242;2023-05-11T09:38:18;94309.91;;;10.52;78.73
61128;BME280;47013;42.664;23.242;2023-05-11T09:40:51;94312.59;;;10.63;78.26
61128;BME280;47013;42.664;23.242;2023-05-11T09:43:18;94317.13;;;10.80;78.16
61128;BME280;47013;42.664;23.242;2023-05-11T09:45:44;94315.97;;;10.78;77.42
61128;BME280;47013;42.664;23.242;2023-05-11T09:50:44;94306.59;;;10.89;77.85
61128;BME280;47013;42.664;23.242;2023-05-11T09:53:10;94310.25;;;10.69;77.75
61128;BME280;47013;42.664;23.242;2023-05-11T09:55:35;94305.28;;;10.56;79.31
61128;BME280;47013;42.664;23.242;2023-05-11T09:58:01;94306.09;;;10.46;80.08
61128;BME280;47013;42.664;23.242;2023-05-11T10:00:26;94297.06;;;10.67;79.30
61128;BME280;47013;42.664;23.242;2023-05-11T10:03:05;94288.53;;;10.65;79.26
61128;BME280;47013;42.664;23.242;2023-05-11T10:05:31;94283.03;;;10.79;79.15
61128;BME280;47013;42.664;23.242;2023-05-11T10:08:06;94290.81;;;10.74;78.88
61128;BME280;47013;42.664;23.242;2023-05-11T10:10:31;94284.59;;;10.77;79.86
61128;BME280;47013;42.664;23.242;2023-05-11T10:12:58;94289.69;;;10.71;79.08
61128;BME280;47013;42.664;23.242;2023-05-11T10:15:24;94285.84;;;10.69;79.53
61128;BME280;47013;42.664;23.242;2023-05-11T10:17:52;94269.47;;;10.83;79.33
61128;BME280;47013;42.664;23.242;2023-05-11T10:20:18;94276.38;;;10.91;78.53
61128;BME280;47013;42.664;23.242;2023-05-11T10:22:44;94279.41;;;11.00;79.08
61128;BME280;47013;42.664;23.242;2023-05-11T10:25:10;94279.75;;;11.06;78.81
61128;BME280;47013;42.664;23.242;2023-05-11T10:27:35;94280.50;;;11.06;78.29
61128;BME280;47013;42.664;23.242;2023-05-11T10:30:01;94273.78;;;11.25;78.55
61128;BME280;47013;42.664;23.242;2023-05-11T10:32:27;94270.81;;;11.05;79.20
61128;BME280;47013;42.664;23.242;2023-05-11T10:34:53;94271.59;;;11.09;78.68
61128;BME280;47013;42.664;23.242;2023-05-11T10:37:19;94269.44;;;11.31;78.04
61128;BME280;47013;42.664;23.242;2023-05-11T10:39:45;94265.63;;;11.25;77.70
61128;BME280;47013;42.664;23.242;2023-05-11T10:44:57;94258.50;;;11.42;77.95
61128;BME280;47013;42.664;23.242;2023-05-11T10:57:40;94276.81;;;12.09;75.29
61128;BME280;47013;42.664;23.242;2023-05-11T11:03:07;94270.84;;;11.91;74.81
61128;BME280;47013;42.664;23.242;2023-05-11T11:05:34;94266.81;;;12.03;75.21
61128;BME280;47013;42.664;23.242;2023-05-11T11:08:00;94265.09;;;11.82;74.94
61128;BME280;47013;42.664;23.242;2023-05-11T11:10:32;94262.59;;;11.57;75.59
61128;BME280;47013;42.664;23.242;2023-05-11T11:18:26;94262.22;;;11.59;75.32
61128;BME280;47013;42.664;23.242;2023-05-11T11:20:52;94263.00;;;11.56;74.98
61128;BME280;47013;42.664;23.242;2023-05-11T11:26:02;94256.44;;;11.53;75.37
61128;BME280;47013;42.664;23.242;2023-05-11T11:28:44;94255.22;;;11.61;76.02
61128;BME280;47013;42.664;23.242;2023-05-11T11:31:23;94244.56;;;11.40;75.23
61128;BME280;47013;42.664;23.242;2023-05-11T11:33:49;94256.00;;;11.58;76.10
61128;BME280;47013;42.664;23.242;2023-05-11T11:36:15;94247.84;;;11.62;75.96
61128;BME280;47013;42.664;23.242;2023-05-11T11:38:55;94246.09;;;11.78;75.65
61128;BME280;47013;42.664;23.242;2023-05-11T11:41:27;94247.03;;;12.02;74.95
61128;BME280;47013;42.664;23.242;2023-05-11T11:43:53;94248.06;;;12.12;73.75
61128;BME280;47013;42.664;23.242;2023-05-11T11:46:25;94255.53;;;12.04;73.97
61128;BME280;47013;42.664;23.242;2023-05-11T11:48:55;94255.19;;;12.02;74.38
61128;BME280;47013;42.664;23.242;2023-05-11T11:51:31;94252.88;;;11.97;73.67
61128;BME280;47013;42.664;23.242;2023-05-11T11:53:57;94242.19;;;11.83;74.65
61128;BME280;47013;42.664;23.242;2023-05-11T12:01:14;94250.63;;;11.92;73.10
61128;BME280;47013;42.664;23.242;2023-05-11T12:03:40;94250.81;;;11.74;73.70
61128;BME280;47013;42.664;23.242;2023-05-11T12:06:06;94241.28;;;11.56;74.30
61128;BME280;47013;42.664;23.242;2023-05-11T12:08:33;94242.81;;;11.60;75.81
61128;BME280;47013;42.664;23.242;2023-05-11T12:10:59;94243.84;;;11.70;75.05
61128;BME280;47013;42.664;23.242;2023-05-11T12:13:25;94240.38;;;11.69;74.32
61128;BME280;47013;42.664;23.242;2023-05-11T12:16:13;94241.91;;;11.70;74.49
61128;BME280;47013;42.664;23.242;2023-05-11T12:18:39;94234.63;;;11.64;74.53
61128;BME280;47013;42.664;23.242;2023-05-11T12:21:04;94237.69;;;11.66;74.57
61128;BME280;47013;42.664;23.242;2023-05-11T12:23:29;94238.16;;;11.61;74.27
61128;BME280;47013;42.664;23.242;2023-05-11T12:26:02;94231.19;;;11.60;74.15
61128;BME280;47013;42.664;23.242;2023-05-11T12:28:27;94228.16;;;11.50;74.02
61128;BME280;47013;42.664;23.242;2023-05-11T12:30:56;94219.34;;;11.39;74.85
61128;BME280;47013;42.664;23.242;2023-05-11T12:33:21;94222.47;;;11.38;75.22
61128;BME280;47013;42.664;23.242;2023-05-11T12:35:50;94222.84;;;11.40;75.23
61128;BME280;47013;42.664;23.242;2023-05-11T12:38:16;94212.88;;;11.26;75.73
61128;BME280;47013;42.664;23.242;2023-05-11T12:40:51;94215.16;;;11.35;76.44
61128;BME280;47013;42.664;23.242;2023-05-11T12:43:20;94206.59;;;11.33;76.72
61128;BME280;47013;42.664;23.242;2023-05-11T12:45:46;94220.63;;;11.28;76.60
61128;BME280;47013;42.664;23.242;2023-05-11T12:48:11;94212.78;;;11.37;77.08
61128;BME280;47013;42.664;23.242;2023-05-11T12:50:40;94219.59;;;11.14;76.75
61128;BME280;47013;42.664;23.242;2023-05-11T12:53:16;94215.09;;;10.97;77.09
61128;BME280;47013;42.664;23.242;2023-05-11T12:55:41;94203.53;;;10.89;78.02
61128;BME280;47013;42.664;23.242;2023-05-11T12:58:09;94197.69;;;10.91;77.87
61128;BME280;47013;42.664;23.242;2023-05-11T13:00:34;94191.09;;;10.92;78.28
61128;BME280;47013;42.664;23.242;2023-05-11T13:03:00;94197.19;;;11.03;78.33
61128;BME280;47013;42.664;23.242;2023-05-11T13:05:25;94193.66;;;11.10;77.96
61128;BME280;47013;42.664;23.242;2023-05-11T13:07:58;94188.91;;;11.21;77.33
61128;BME280;47013;42.664;23.242;2023-05-11T13:10:24;94183.47;;;11.21;77.32
61128;BME280;47013;42.664;23.242;2023-05-11T13:12:51;94186.63;;;11.16;77.39
61128;BME280;47013;42.664;23.242;2023-05-11T13:15:16;94191.50;;;11.32;77.51
61128;BME280;47013;42.664;23.242;2023-05-11T13:17:42;94180.69;;;11.28;76.80
61128;BME280;47013;42.664;23.242;2023-05-11T13:22:46;94187.59;;;11.36;77.11
61128;BME280;47013;42.664;23.242;2023-05-11T13:25:13;94181.03;;;11.34;77.33
61128;BME280;47013;42.664;23.242;2023-05-11T13:27:38;94168.66;;;11.29;77.03
61128;BME280;47013;42.664;23.242;2023-05-11T13:30:04;94171.31;;;11.33;77.32
61128;BME280;47013;42.664;23.242;2023-05-11T13:32:29;94174.28;;;11.49;77.75